Latest Weather Observations for Point Stuart

IDD60801

Issued at 5:35 pm CST Sunday 21 September 2014 (issued every 30 minutes, with the page automatically refreshed every 10 minutes)

About weather observations | Map of weather stations | Latest weather observations for NT | Other Formats
Station Details ID: 014254 Name: POINT STUART Lat: -12.24 Lon: 131.88 Height: 1.0 m
Data from the previous 72 hours. | See also: Recent months for locations in Northern Territory
Date/Time
CST
Temp
°C
App
Temp
°C
Dew
Point
Rel
Hum
%
Delta-T
°C
Wind Press
QNH
hPa
Press
MSL
hPa
Rain
since 9 am
mm
Dir
 
Spd
km/h
Gust
km/h
Spd
kts
Gust
kts
21/05:30pm 30.2 30.6 18.9 50 7.3 N 15 26 8 14 1010.6 - -
21/05:00pm 30.5 30.0 17.9 47 8.1 N 17 26 9 14 1010.6 - -
21/04:30pm 31.0 30.7 17.3 43 8.7 NNW 15 22 8 12 1010.7 - -
21/04:00pm 31.2 31.6 18.9 48 8.0 NNW 15 22 8 12 1010.7 - -
21/03:30pm 31.4 31.2 18.4 46 8.4 NNW 17 22 9 12 1010.8 - -
21/03:00pm 31.6 31.1 17.9 44 8.8 N 17 28 9 15 1011.0 1011.0 -
21/02:30pm 30.8 29.3 16.8 43 8.8 NNW 20 30 11 16 1011.2 - -
21/02:00pm 31.3 30.3 15.7 39 9.7 N 15 26 8 14 1011.6 - -
21/01:30pm 31.5 30.3 15.0 36 10.1 N 15 24 8 13 1012.1 - -
21/01:00pm 31.4 31.4 16.2 40 9.5 N 11 20 6 11 1012.7 - -
21/12:30pm 31.7 31.0 16.4 39 9.6 N 15 20 8 11 1013.3 - -
21/12:00pm 31.7 31.9 16.8 40 9.4 N 11 17 6 9 1013.9 1013.9 -
21/11:30am 31.4 31.9 18.4 46 8.4 NNW 13 20 7 11 1014.3 - -
21/11:00am 30.4 31.1 19.7 52 7.0 NNW 15 24 8 13 1014.8 - -
21/10:30am 30.7 32.5 21.2 57 6.4 NNW 13 20 7 11 1015.1 - -
21/10:00am 29.8 31.9 20.9 59 5.9 NW 11 17 6 9 1015.2 - -
21/09:30am 29.0 31.0 20.7 61 5.5 SSW 11 17 6 9 1015.3 - -
21/09:00am 27.5 29.9 21.5 70 4.0 S 11 15 6 8 1015.4 1015.4 -
21/08:30am 26.6 29.2 22.0 76 3.1 NE 11 15 6 8 1015.3 - -
21/08:00am 24.3 28.4 21.6 85 1.8 NE 2 7 1 4 1015.0 - -
21/07:30am 21.4 25.5 20.7 96 0.5 CALM 0 0 0 0 1014.5 - -
21/07:00am 19.9 22.1 19.6 98 0.2 NE 7 7 4 4 1014.1 - -
21/06:30am 19.4 20.8 18.6 95 0.5 NE 9 11 5 6 1013.7 - -
21/06:00am 19.9 22.4 19.1 95 0.5 NE 4 7 2 4 1013.2 1013.2 -
21/05:30am 20.0 21.9 19.0 94 0.6 NE 7 9 4 5 1013.1 - -
21/05:00am 20.1 22.2 19.4 96 0.4 NE 7 9 4 5 1012.6 - -
21/04:30am 19.9 22.0 19.4 97 0.3 NE 7 9 4 5 1012.6 - -
21/04:00am 20.0 22.0 19.2 95 0.5 NE 7 9 4 5 1012.6 - -
21/03:30am 20.1 22.0 18.9 93 0.8 NE 7 9 4 5 1012.5 - -
21/03:00am 20.4 22.4 19.1 92 0.8 NE 7 9 4 5 1012.4 1012.4 -
21/02:30am 20.8 24.2 19.3 91 0.9 CALM 0 0 0 0 1012.7 - -
21/02:00am 21.2 23.4 19.1 88 1.3 NE 6 7 3 4 1013.1 - -
21/01:30am 21.8 23.2 19.5 87 1.5 NE 11 13 6 7 1013.4 - -
21/01:00am 22.6 24.5 18.6 78 2.5 N 6 9 3 5 1013.5 - -
21/12:30am 23.8 26.2 18.0 70 3.6 NE 2 9 1 5 1013.7 - -
21/12:00am 25.3 26.1 19.9 72 3.5 NE 15 20 8 11 1013.6 1013.6 -
 
Date/Time
CST
Temp
°C
App
Temp
°C
Dew
Point
Rel
Hum
%
Delta-T
°C
Wind Press
QNH
hPa
Press
MSL
hPa
Rain
since 9 am
mm
Dir
 
Spd
km/h
Gust
km/h
Spd
kts
Gust
kts
20/11:30pm 25.6 26.0 19.9 70 3.7 NNE 17 24 9 13 1013.7 - -
20/11:00pm 25.7 26.0 19.6 69 3.9 NNE 17 22 9 12 1013.6 - -
20/10:30pm 25.7 25.5 18.6 65 4.5 NNE 17 24 9 13 1013.5 - -
20/10:00pm 25.0 25.1 17.5 63 4.7 N 13 19 7 10 1013.3 - -
20/09:30pm 25.1 27.1 19.2 70 3.8 N 7 11 4 6 1012.9 - -
20/09:00pm 25.6 27.8 19.7 70 3.8 N 7 11 4 6 1012.8 1012.8 -
20/08:30pm 25.9 28.9 21.3 76 3.0 N 7 13 4 7 1012.6 - -
20/08:00pm 26.2 28.7 21.0 73 3.4 NNW 9 15 5 8 1012.2 - -
20/07:30pm 26.7 28.7 20.8 70 3.9 NNW 11 20 6 11 1011.6 - -
20/07:00pm 27.0 28.2 19.9 65 4.6 NNW 13 19 7 10 1011.1 - -
20/06:30pm 28.0 28.9 19.2 58 5.7 NNW 13 22 7 12 1010.7 - -
20/06:00pm 29.3 29.7 17.2 48 7.6 N 11 20 6 11 1010.1 1010.1 -
20/05:30pm 30.0 28.7 15.7 42 8.8 N 17 28 9 15 1009.9 - -
20/05:00pm 30.6 28.7 15.8 40 9.2 N 20 30 11 16 1009.7 - -
20/04:30pm 31.5 30.5 16.6 40 9.4 NNW 17 26 9 14 1009.7 - -
20/04:00pm 31.0 30.6 18.0 45 8.3 NNW 17 24 9 13 1009.6 - -
20/03:30pm 32.2 30.9 14.8 35 10.7 NNW 15 24 8 13 1010.0 - -
20/03:00pm 31.9 31.8 17.0 41 9.5 NNW 13 20 7 11 1010.4 1010.4 -
20/02:30pm 32.6 32.4 16.8 38 10.0 N 13 20 7 11 1010.9 - -
20/02:00pm 31.9 31.8 17.8 43 9.0 N 15 24 8 13 1011.7 - -
20/01:30pm 32.5 32.9 19.0 44 8.8 N 15 24 8 13 1012.3 - -
20/01:00pm 30.8 31.1 18.8 48 7.8 N 15 22 8 12 1013.1 - -
20/12:30pm 32.2 32.1 16.9 40 9.7 NNE 13 24 7 13 1013.5 - -
20/12:00pm 32.1 31.7 17.2 41 9.5 NNE 15 22 8 12 1014.2 1014.2 -
20/11:30am 31.6 31.6 17.1 41 9.2 NE 13 20 7 11 1014.7 - -
20/11:00am 31.8 32.1 18.0 43 8.9 ENE 13 20 7 11 1015.1 - -
20/10:30am 32.3 34.3 19.9 48 8.2 WSW 9 19 5 10 1015.3 - -
20/10:00am 30.5 32.2 18.6 49 7.7 S 7 15 4 8 1015.5 - -
20/09:30am 28.5 29.6 18.0 53 6.7 SW 9 17 5 9 1015.6 - -
20/09:00am 27.6 29.3 19.4 61 5.3 NE 9 13 5 7 1015.4 1015.4 -
20/08:30am 26.6 28.7 20.9 71 3.8 NNE 11 13 6 7 1015.3 - -
20/08:00am 24.8 27.6 22.3 86 1.7 NNE 11 13 6 7 1015.1 - -
20/07:30am 22.3 25.9 22.3 100 0.0 NNE 7 9 4 5 1014.8 - -
20/07:00am 19.9 21.7 19.6 98 0.2 N 9 11 5 6 1014.4 - -
20/06:30am 19.5 21.6 19.3 99 0.1 N 7 9 4 5 1013.9 - -
20/06:00am 19.0 20.4 18.7 98 0.2 NNE 9 11 5 6 1013.6 1013.6 -
20/05:30am 18.8 21.4 17.5 92 0.8 CALM 0 0 0 0 1013.0 - -
20/05:00am 19.1 21.8 17.8 92 0.8 CALM 0 0 0 0 1012.8 - -
20/04:30am 19.6 22.7 18.6 94 0.6 CALM 0 0 0 0 1012.8 - -
20/04:00am 19.7 22.5 18.0 90 1.0 CALM 0 0 0 0 1013.0 - -
20/03:30am 20.1 22.9 18.0 88 1.3 CALM 0 0 0 0 1013.1 - -
20/03:00am 20.6 22.8 19.1 91 0.9 NNE 6 7 3 4 1013.2 1013.2 -
20/02:30am 20.7 22.5 18.8 89 1.2 NNE 7 7 4 4 1013.3 - -
20/02:00am 21.1 22.6 18.1 83 1.9 NNE 7 7 4 4 1013.8 - -
20/01:30am 21.8 24.1 17.8 78 2.5 NNE 2 6 1 3 1014.1 - -
20/01:00am 22.8 24.4 17.0 70 3.6 N 4 6 2 3 1014.5 - -
20/12:30am 24.5 26.0 18.0 67 4.1 N 7 9 4 5 1014.9 - -
20/12:00am 25.2 25.7 17.4 62 4.9 NNE 11 15 6 8 1014.9 1014.9 -
 
Date/Time
CST
Temp
°C
App
Temp
°C
Dew
Point
Rel
Hum
%
Delta-T
°C
Wind Press
QNH
hPa
Press
MSL
hPa
Rain
since 9 am
mm
Dir
 
Spd
km/h
Gust
km/h
Spd
kts
Gust
kts
19/11:30pm 25.5 26.6 17.9 63 4.8 NNE 9 13 5 7 1015.1 - -
19/11:00pm 26.4 26.7 18.0 60 5.3 NNE 13 24 7 13 1014.6 - -
19/10:30pm 26.7 25.6 18.6 61 5.2 NNE 22 35 12 19 1014.3 - -
19/10:00pm 26.8 25.6 18.4 60 5.3 NNE 22 32 12 17 1014.2 - -
19/09:30pm 27.1 26.4 18.7 60 5.4 NNE 20 32 11 17 1013.8 - -
19/09:00pm 27.2 26.9 18.2 58 5.7 NNE 17 26 9 14 1013.4 1013.4 -
19/08:30pm 27.2 28.7 20.5 67 4.4 N 13 20 7 11 1012.9 - -
19/08:00pm 27.3 29.2 21.3 69 4.0 N 13 20 7 11 1012.5 - -
19/07:30pm 27.4 28.9 21.2 69 4.1 N 15 26 8 14 1012.1 - -
19/07:00pm 27.6 29.2 20.7 66 4.6 N 13 22 7 12 1011.5 - -
19/06:30pm 28.5 29.1 19.4 57 5.9 N 15 24 8 13 1011.0 - -
19/06:00pm 30.2 30.1 16.9 44 8.4 N 13 24 7 13 1010.4 1010.4 -
19/05:30pm 30.8 30.0 16.0 40 9.2 N 15 24 8 13 1010.0 - -
19/05:00pm 30.8 29.8 17.5 45 8.5 NNW 19 28 10 15 1009.9 - -
19/04:30pm 31.4 30.2 16.2 40 9.5 NNW 17 28 9 15 1010.0 - -
19/04:00pm 32.4 31.4 16.7 39 9.9 NW 17 26 9 14 1010.0 - -
19/03:30pm 33.6 32.5 17.7 38 10.2 NNW 20 26 11 14 1010.2 - -
19/03:00pm 33.7 32.5 16.1 34 11.1 NNW 17 24 9 13 1010.4 1010.4 -
19/02:30pm 33.0 32.0 15.5 35 10.9 NNW 15 22 8 12 1010.9 - -
19/02:00pm 35.4 34.3 15.2 30 12.6 NE 15 26 8 14 1011.3 - -
19/01:30pm 33.3 32.2 15.3 34 11.2 NNW 15 20 8 11 1012.0 - -
19/01:00pm 33.9 32.3 14.9 32 11.8 NNE 17 22 9 12 1012.5 - -
19/12:30pm 34.9 33.4 14.2 28 12.7 NE 15 26 8 14 1013.0 - -
19/12:00pm 33.8 30.6 9.8 23 13.8 NE 17 26 9 14 1013.7 1013.7 -
19/11:30am 33.0 32.8 16.8 38 10.3 NE 13 22 7 12 1014.4 - -
19/11:00am 31.4 32.5 18.0 44 8.6 N 9 15 5 8 1014.9 - -
19/10:30am 32.1 31.8 13.3 31 11.3 S 7 9 4 5 1015.2 - -
19/10:00am 30.2 30.9 16.2 42 8.7 WSW 7 13 4 7 1015.5 - -
19/09:30am 29.0 30.1 18.1 51 7.0 S 9 15 5 8 1015.7 - -
19/09:00am 27.5 29.5 17.9 55 6.1 SE 4 9 2 5 1015.7 1015.7 -
19/08:30am 26.5 28.7 19.6 66 4.5 S 7 11 4 6 1015.6 - -
19/08:00am 24.2 28.2 22.1 88 1.4 S 4 9 2 5 1015.4 - -
19/07:30am 20.8 24.9 20.8 100 0.0 CALM 0 0 0 0 1015.0 - -
19/07:00am 19.1 22.4 19.1 100 0.0 CALM 0 0 0 0 1014.7 - -
19/06:30am 19.1 22.3 18.8 98 0.2 CALM 0 0 0 0 1014.3 - -
19/06:00am 19.3 21.7 18.8 97 0.3 S 4 6 2 3 1014.2 1014.2 -
19/05:30am 19.5 22.0 19.0 97 0.3 S 4 7 2 4 1013.9 - -
19/05:00am 19.2 20.7 18.0 93 0.7 S 7 9 4 5 1013.8 - -
19/04:30am 19.9 23.2 19.2 96 0.4 CALM 0 0 0 0 1013.6 - -
19/04:00am 19.9 23.1 18.9 94 0.6 CALM 0 0 0 0 1013.6 - -
19/03:30am 20.9 23.7 20.4 97 0.3 S 6 9 3 5 1013.4 - -
19/03:00am 21.1 23.4 20.6 97 0.3 S 9 13 5 7 1013.5 1013.5 -
19/02:30am 21.1 23.6 20.3 95 0.5 S 7 11 4 6 1013.5 - -
19/02:00am 21.3 23.7 20.1 93 0.8 NE 7 9 4 5 1013.7 - -
19/01:30am 21.2 23.4 19.1 88 1.3 NE 6 7 3 4 1014.0 - -
19/01:00am 22.0 23.9 18.6 81 2.1 NE 6 7 3 4 1014.2 - -
19/12:30am 22.4 24.1 18.6 79 2.4 NE 7 11 4 6 1014.6 - -
19/12:00am 24.7 26.9 18.4 68 4.0 NE 4 7 2 4 1014.7 1014.7 -
 
Date/Time
CST
Temp
°C
App
Temp
°C
Dew
Point
Rel
Hum
%
Delta-T
°C
Wind Press
QNH
hPa
Press
MSL
hPa
Rain
since 9 am
mm
Dir
 
Spd
km/h
Gust
km/h
Spd
kts
Gust
kts
18/11:30pm 24.6 26.3 18.5 69 3.9 NE 7 9 4 5 1014.8 - -
18/11:00pm 25.2 27.3 19.3 70 3.8 NE 7 11 4 6 1014.8 - -
18/10:30pm 25.9 26.7 19.1 66 4.4 NE 13 17 7 9 1014.7 - -
18/10:00pm 25.6 26.9 19.3 68 4.0 NNE 11 13 6 7 1014.5 - -
18/09:30pm 26.1 27.4 19.2 65 4.4 N 11 15 6 8 1014.1 - -
18/09:00pm 26.1 29.3 21.7 77 2.9 NNW 7 11 4 6 1013.7 1013.7 -
18/08:30pm 26.2 29.7 22.1 78 2.7 N 7 9 4 5 1013.2 - -
18/08:00pm 26.8 29.4 22.0 75 3.2 NNW 11 15 6 8 1012.8 - -
18/07:30pm 27.6 29.5 21.4 69 4.1 N 13 19 7 10 1012.5 - -
18/07:00pm 28.2 29.2 19.4 59 5.7 N 13 20 7 11 1011.9 - -
18/06:30pm 28.4 29.1 18.8 56 6.2 N 13 22 7 12 1011.5 - -
18/06:00pm 29.2 29.4 18.6 52 6.8 N 15 26 8 14 1011.2 1011.2 -

Other Formats:

Comma delimited format used in spreadsheet applications
http://www.bom.gov.au/fwo/IDD60801/IDD60801.94127.axf

JavaScript Object Notation format (JSON) in row-major order
http://www.bom.gov.au/fwo/IDD60801/IDD60801.94127.json